Flight Track Log - Related Links

Times and Time Zones

All times are in EDT time to prevent confusion due to time zone crossing. See the N960DL flight status page for this flight to view local times or setup timezone preferences in your user account.


Time Position Orientation Groundspeed Altitude Reporting Facility
EDT Latitude Longitude Course Direction KTS MPH feet Rate Location/Type
Wed 11:27:24 AM 33.6500 -84.3667 North 184 212 2,900  Level Atlanta TRACON
Wed 11:29:00 AM 33.8991 -84.5729 342° North  Level FlightAware Approximate
Wed 11:29:24 AM 33.6833 -84.2167 75° East 275 316 9,300  Level Atlanta TRACON
Wed 11:30:00 AM 34.0101 -84.6173 342° North  Level FlightAware Approximate
Wed 11:31:00 AM 34.1212 -84.6617 342° North  Level FlightAware Approximate
Wed 11:31:28 AM 33.8381 -84.1839 10° North 296 341 9,900  Level Atlanta Center
Wed 11:32:00 AM 34.2331 -84.7000 North  Level FlightAware Approximate
Wed 11:32:28 AM 33.9067 -84.2467 323° Northwest 306 352 10,500  Level Atlanta Center
Wed 11:33:28 AM 33.9650 -84.3244 312° West 327 376 12,900 2,350 Climbing Atlanta Center
Wed 11:34:28 AM 34.0086 -84.4172 300° West 341 392 15,200 2,850 Climbing Atlanta Center
Wed 11:35:28 AM 34.0875 -84.5203 313° West 370 426 18,600 2,800 Climbing Atlanta Center
Wed 11:36:28 AM 34.1708 -84.6111 318° Northwest 386 444 20,800 2,200 Climbing Atlanta Center
Wed 11:37:28 AM 34.2517 -84.7047 316° Northwest 400 460 23,000 2,050 Climbing Atlanta Center
Wed 11:38:28 AM 34.3619 -84.7586 338° Northwest 411 473 24,900 1,650 Climbing Atlanta Center
Wed 11:39:28 AM 34.4744 -84.8097 339° North 428 493 26,300 1,450 Climbing Atlanta Center
Wed 11:40:28 AM 34.5972 -84.8639 340° North 453 521 27,800 1,700 Climbing Atlanta Center
Wed 11:41:28 AM 34.7033 -84.9106 340° North 460 529 29,700 1,600 Climbing Atlanta Center
Wed 11:42:28 AM 34.8069 -84.9950 326° Northwest 460 529 31,000 1,350 Climbing Atlanta Center
Wed 11:43:28 AM 34.8936 -85.1022 315° West 451 519 32,400 1,240 Climbing Atlanta Center
Wed 11:44:29 AM 34.9803 -85.2100 314° West 445 512 33,500 1,145 Climbing Atlanta Center
Wed 11:46:21 AM 35.1511 -85.4203 315° West 442 509 35,700 872 Climbing Memphis Center
Wed 11:47:21 AM 35.2344 -85.5247 314° West 437 503 36,000 150 Climbing Memphis Center
Wed 11:48:21 AM 35.3003 -85.6072 314° West 437 503 36,000  Level Memphis Center
Wed 11:49:21 AM 35.3900 -85.7244 313° West 432 497 36,000  Level Memphis Center
Wed 11:50:21 AM 35.4733 -85.8319 314° West 432 497 36,000  Level Memphis Center
Wed 11:51:21 AM 35.5564 -85.9372 314° West 432 497 36,000  Level Memphis Center
Wed 11:52:21 AM 35.6394 -86.0425 314° West 432 497 36,000  Level Memphis Center
Wed 11:53:21 AM 35.7200 -86.1483 313° West 432 497 36,000  Level Memphis Center
Wed 11:54:21 AM 35.8031 -86.2542 314° West 432 497 36,000  Level Memphis Center
Wed 11:55:21 AM 35.8878 -86.3600 315° West 432 497 36,000  Level Memphis Center
Wed 11:56:21 AM 35.9683 -86.4689 312° West 432 497 36,000  Level Memphis Center
Wed 11:57:21 AM 36.0594 -86.5853 314° West 437 503 36,000  Level Memphis Center
Wed 11:58:21 AM 36.1400 -86.6947 312° West 437 503 36,000  Level Memphis Center
Wed 11:59:21 AM 36.1894 -86.8261 295° West 426 490 36,000  Level Memphis Center
Wed 12:00:21 PM 36.2456 -86.9653 297° West 439 505 36,000  Level Memphis Center
Wed 12:01:21 PM 36.2925 -87.0844 296° West 444 511 36,000  Level Memphis Center
Wed 12:02:21 PM 36.3458 -87.2136 297° West 434 499 36,000  Level Memphis Center
Wed 12:03:21 PM 36.3992 -87.3481 296° West 434 499 36,000  Level Memphis Center
Wed 12:04:21 PM 36.4525 -87.4803 297° West 429 494 36,000  Level Memphis Center
Wed 12:05:22 PM 36.5033 -87.6128 296° West 429 494 36,000  Level Memphis Center
Wed 12:06:21 PM 36.5586 -87.7581 295° West 429 494 36,000  Level Memphis Center
Wed 12:07:21 PM 36.6133 -87.8908 297° West 429 494 36,000  Level Memphis Center
Wed 12:08:21 PM 36.6639 -88.0264 295° West 434 499 36,000  Level Memphis Center
Wed 12:09:21 PM 36.7186 -88.1567 298° West 429 494 36,000 -500 Level Memphis Center
Wed 12:10:21 PM 36.7708 -88.2900 296° West 429 494 35,000 -500 Descending Memphis Center
Wed 12:11:21 PM 36.8208 -88.4233 295° West 429 494 35,000  Level Memphis Center
Wed 12:12:21 PM 36.8708 -88.5597 295° West 429 494 35,000 -500 Level Memphis Center
Wed 12:13:21 PM 36.9208 -88.6961 295° West 429 494 34,000 -500 Descending Memphis Center
Wed 12:14:21 PM 36.9703 -88.8328 294° West 434 499 34,000 -312 Level Memphis Center
Wed 12:15:55 PM 37.0375 -89.0242 294° West 435 501 33,200 -1,385 Descending Kansas City Center
Wed 12:16:57 PM 37.0964 -89.1914 294° West 439 505 30,400 -2,274 Descending Kansas City Center
Wed 12:17:59 PM 37.1475 -89.3344 294° West 447 514 28,500 -1,790 Descending Kansas City Center
Wed 12:19:01 PM 37.1983 -89.4747 294° West 447 514 26,700 -1,210 Descending Kansas City Center
Wed 12:20:03 PM 37.2744 -89.5967 308° West 451 519 26,000 -677 Descending Kansas City Center
Wed 12:21:05 PM 37.3897 -89.6606 336° Northwest 453 521 25,300 -1,016 Descending Kansas City Center
Wed 12:22:07 PM 37.5033 -89.7208 337° Northwest 444 511 23,900 -1,548 Descending Kansas City Center
Wed 12:23:09 PM 37.6264 -89.7883 337° Northwest 447 514 22,100 -1,597 Descending Kansas City Center
Wed 12:24:11 PM 37.7342 -89.8475 337° Northwest 430 495 20,600 -1,548 Descending Kansas City Center
Wed 12:25:13 PM 37.8428 -89.9058 337° Northwest 424 488 18,900 -1,645 Descending Kansas City Center
Wed 12:26:15 PM 37.9683 -89.9761 336° Northwest 413 475 17,200 -1,500 Descending Kansas City Center
Wed 12:27:17 PM 38.0706 -90.0317 337° Northwest 404 465 15,800 -1,306 Descending Kansas City Center
Wed 12:28:19 PM 38.1736 -90.0881 337° Northwest 404 465 14,500 -1,210 Descending Kansas City Center
Wed 12:29:21 PM 38.2733 -90.1444 336° Northwest 397 457 13,300 -1,113 Descending Kansas City Center
Wed 12:30:23 PM 38.3717 -90.1997 336° Northwest 389 448 12,200 -1,113 Descending Kansas City Center
Wed 12:31:25 PM 38.4847 -90.2639 336° Northwest 382 440 11,000 -1,065 Descending Kansas City Center
Wed 12:32:27 PM 38.5786 -90.3175 336° Northwest 375 432 10,000 -968 Descending Kansas City Center
Wed 12:33:29 PM 38.6581 -90.3656 335° Northwest 325 374 9,000 -1,000 Descending Kansas City Center
Wed 12:33:45 PM 38.6667 -90.3833 302° West 305 351 8,700 -1,429 Descending Gateway (St. Louis) TRACON
Wed 12:34:32 PM 38.7017 -90.4525 303° West 282 325 7,500 -1,817 Descending Kansas City Center
Wed 12:35:34 PM 38.7353 -90.5244 301° West 244 281 5,400 -1,597 Descending Kansas City Center
Wed 12:36:36 PM 38.7678 -90.5906 302° West 227 261 4,200 -1,161 Descending Kansas City Center

Login

Don't have an account? Register now (free) for customized features, flight alerts, and more!